Time;durP1;ratioP1;P1;durP2;ratioP2;P2;SDS_P1;SDS_P2;PMS_P1;PMS_P2;Temp;Humidity;BMP_temperature;BMP_pressure;BME280_temperature;BME280_humidity;BME280_pressure;Samples;Min_cycle;Max_cycle;Signal;HPM_P1;HPM_P2
2021/03/05 00:00:11;;;;;;;7.13;3.75;;;4.90;99.90;;;;;;4992362;28;20049;-74
2021/03/05 00:02:37;;;;;;;10.05;4.10;;;4.90;99.90;;;;;;4991853;28;20030;-74
2021/03/05 00:05:03;;;;;;;9.68;4.13;;;4.80;99.90;;;;;;4990193;28;20072;-73
2021/03/05 00:07:29;;;;;;;8.90;4.70;;;4.70;99.90;;;;;;4991965;28;20031;-74
2021/03/05 00:09:54;;;;;;;12.50;4.80;;;4.80;99.90;;;;;;4991398;28;20724;-73
2021/03/05 00:12:20;;;;;;;11.77;4.45;;;4.80;99.90;;;;;;4996986;28;20022;-73
2021/03/05 00:14:45;;;;;;;12.60;4.80;;;4.80;99.90;;;;;;4988790;28;20031;-74
2021/03/05 00:17:11;;;;;;;12.15;5.22;;;4.80;99.90;;;;;;4990270;28;20027;-74
2021/03/05 00:19:37;;;;;;;9.05;4.38;;;4.70;99.90;;;;;;4990975;28;20022;-73
2021/03/05 00:22:04;;;;;;;11.20;5.07;;;4.60;99.90;;;;;;4990779;28;20034;-74
2021/03/05 00:24:30;;;;;;;14.75;5.07;;;4.70;99.90;;;;;;4990487;28;20030;-74
2021/03/05 00:26:55;;;;;;;10.73;4.72;;;4.70;99.90;;;;;;4991036;28;20377;-73
2021/03/05 00:29:21;;;;;;;14.15;4.93;;;4.60;99.90;;;;;;4991493;28;20114;-74
2021/03/05 00:31:46;;;;;;;13.90;5.50;;;4.50;99.90;;;;;;4990294;28;20089;-74
2021/03/05 00:34:12;;;;;;;11.02;4.60;;;4.50;99.90;;;;;;4990192;28;20350;-74
2021/03/05 00:36:38;;;;;;;14.02;4.93;;;4.60;99.90;;;;;;4991246;28;20030;-74
2021/03/05 00:39:04;;;;;;;15.05;4.80;;;4.40;99.90;;;;;;4991451;28;20030;-73
2021/03/05 00:41:29;;;;;;;13.88;5.22;;;4.40;99.90;;;;;;4992297;28;20114;-74
2021/03/05 00:43:57;;;;;;;19.17;6.03;;;4.40;99.90;;;;;;4990071;28;20109;-73
2021/03/05 00:46:22;;;;;;;21.10;5.78;;;4.30;99.90;;;;;;4991751;28;20497;-73
2021/03/05 00:48:48;;;;;;;10.60;4.82;;;4.40;99.90;;;;;;4993411;28;20117;-73
2021/03/05 00:51:13;;;;;;;15.15;4.50;;;4.30;99.90;;;;;;4991018;28;20104;-74
2021/03/05 00:53:39;;;;;;;12.75;4.82;;;4.30;99.90;;;;;;4988958;28;20117;-74
2021/03/05 00:56:05;;;;;;;12.48;5.00;;;4.40;99.90;;;;;;4991179;28;20077;-73
2021/03/05 00:58:30;;;;;;;15.85;5.10;;;4.50;99.90;;;;;;4983084;28;20523;-74
2021/03/05 01:00:55;;;;;;;14.30;5.05;;;4.50;99.90;;;;;;4986584;28;20046;-74
2021/03/05 01:03:21;;;;;;;14.70;4.63;;;4.40;99.90;;;;;;4990922;28;20037;-74
2021/03/05 01:05:47;;;;;;;15.73;5.40;;;4.40;99.90;;;;;;4986611;28;20019;-74
2021/03/05 01:08:12;;;;;;;14.02;4.35;;;4.50;99.90;;;;;;4983707;28;20022;-74
2021/03/05 01:10:38;;;;;;;17.63;4.47;;;4.40;99.90;;;;;;4989850;28;20097;-73
2021/03/05 01:13:04;;;;;;;13.60;5.00;;;4.50;99.90;;;;;;4989780;28;20038;-73
2021/03/05 01:15:29;;;;;;;23.70;4.88;;;4.50;99.90;;;;;;4986676;28;20037;-74
2021/03/05 01:17:55;;;;;;;16.40;5.07;;;4.20;99.90;;;;;;4990376;28;20034;-73
2021/03/05 01:20:24;;;;;;;14.98;5.10;;;4.20;99.90;;;;;;4986126;28;20026;-74
2021/03/05 01:22:50;;;;;;;18.02;5.38;;;4.10;99.90;;;;;;4983463;28;20023;-74
2021/03/05 01:25:28;;;;;;;18.42;5.15;;;4.10;99.90;;;;;;4987015;28;20031;-73
2021/03/05 01:27:53;;;;;;;21.42;5.50;;;4.00;99.90;;;;;;4990309;28;20026;-73
2021/03/05 01:30:19;;;;;;;23.10;5.95;;;3.90;99.90;;;;;;4984306;28;20507;-73
2021/03/05 01:32:46;;;;;;;23.65;6.18;;;4.00;99.90;;;;;;4984386;28;20104;-73
2021/03/05 01:35:18;;;;;;;15.73;5.47;;;3.80;99.90;;;;;;4990904;28;20125;-73
2021/03/05 01:37:44;;;;;;;22.48;5.85;;;3.80;99.90;;;;;;4990195;28;20026;-74
2021/03/05 01:40:15;;;;;;;19.52;5.65;;;3.70;99.90;;;;;;4989489;28;20022;-73
2021/03/05 01:42:41;;;;;;;29.20;7.13;;;3.50;99.90;;;;;;4984851;28;20385;-73
2021/03/05 01:45:14;;;;;;;29.05;7.43;;;3.50;99.90;;;;;;4990422;28;20270;-73
2021/03/05 01:47:41;;;;;;;24.63;7.50;;;3.50;99.90;;;;;;4990194;28;20035;-73
2021/03/05 01:50:19;;;;;;;24.58;6.57;;;3.40;99.90;;;;;;4987695;28;20026;-74
2021/03/05 01:52:48;;;;;;;26.13;6.95;;;3.50;99.90;;;;;;4986951;28;20092;-74
2021/03/05 01:55:13;;;;;;;31.55;7.07;;;3.50;99.90;;;;;;4993990;28;20133;-74
2021/03/05 01:57:39;;;;;;;23.23;6.68;;;3.50;99.90;;;;;;4989606;28;20840;-74
2021/03/05 02:00:07;;;;;;;30.00;6.85;;;3.50;99.90;;;;;;4979847;28;20378;-73
2021/03/05 02:02:33;;;;;;;21.25;7.35;;;3.30;99.90;;;;;;4988367;28;20054;-73
2021/03/05 02:04:58;;;;;;;23.20;6.93;;;3.20;99.90;;;;;;4989586;28;20089;-73
2021/03/05 02:07:24;;;;;;;22.00;7.13;;;3.00;99.90;;;;;;4989974;28;20030;-74
2021/03/05 02:09:49;;;;;;;27.45;8.48;;;3.00;99.90;;;;;;4988388;28;20030;-74
2021/03/05 02:12:15;;;;;;;23.52;7.53;;;3.00;99.90;;;;;;4987987;28;20026;-75
2021/03/05 02:14:40;;;;;;;27.08;7.97;;;3.00;99.90;;;;;;4989487;28;20030;-74
2021/03/05 02:17:16;;;;;;;36.08;7.53;;;2.80;99.90;;;;;;4988841;28;20448;-73
2021/03/05 02:20:05;;;;;;;25.23;7.78;;;2.70;99.90;;;;;;4988935;28;20276;-74
2021/03/05 02:23:24;;;;;;;18.50;6.35;;;2.70;99.90;;;;;;4988223;28;20065;-74
2021/03/05 02:26:14;;;;;;;26.95;6.97;;;2.70;99.90;;;;;;4940436;28;20400;-73
2021/03/05 02:29:17;;;;;;;25.33;6.68;;;2.60;99.90;;;;;;4987460;28;20085;-74
2021/03/05 02:32:25;;;;;;;30.42;7.55;;;2.60;99.90;;;;;;4986117;28;20084;-74
2021/03/05 02:34:51;;;;;;;25.02;6.65;;;2.50;99.90;;;;;;4986602;28;20053;-74
2021/03/05 02:37:21;;;;;;;14.65;5.68;;;2.50;99.90;;;;;;4985499;28;20036;-73
2021/03/05 02:39:57;;;;;;;25.45;6.25;;;2.60;99.90;;;;;;4991674;28;20026;-74
2021/03/05 02:42:29;;;;;;;22.63;6.60;;;2.70;99.90;;;;;;4988854;28;20033;-74
2021/03/05 02:45:03;;;;;;;19.58;5.55;;;2.60;99.90;;;;;;4988974;28;20057;-73
2021/03/05 02:47:31;;;;;;;15.27;5.68;;;2.60;99.90;;;;;;4986212;28;20113;-74
2021/03/05 02:49:57;;;;;;;24.60;5.65;;;2.60;99.90;;;;;;4995018;28;20125;-74
2021/03/05 02:52:25;;;;;;;15.02;5.15;;;2.60;99.90;;;;;;4988647;28;20038;-74
2021/03/05 02:54:58;;;;;;;17.13;4.75;;;2.50;99.90;;;;;;4983863;28;20118;-74
2021/03/05 02:57:31;;;;;;;14.75;5.53;;;2.40;99.90;;;;;;4981248;28;20054;-73
2021/03/05 02:59:58;;;;;;;15.80;5.15;;;2.30;99.90;;;;;;4988695;28;20030;-74
2021/03/05 03:02:25;;;;;;;15.65;4.38;;;2.30;99.90;;;;;;4988722;28;20037;-74
2021/03/05 03:04:52;;;;;;;14.75;5.65;;;2.20;99.90;;;;;;4988858;28;20031;-73
2021/03/05 03:07:18;;;;;;;12.40;4.75;;;2.20;99.90;;;;;;4988813;28;20035;-74
2021/03/05 03:09:50;;;;;;;15.35;5.75;;;2.30;99.90;;;;;;4987966;28;20112;-73
2021/03/05 03:12:17;;;;;;;12.65;4.32;;;2.20;99.90;;;;;;4988725;28;20030;-74
2021/03/05 03:14:48;;;;;;;14.32;5.30;;;2.30;99.90;;;;;;4988718;28;20035;-74
2021/03/05 03:17:15;;;;;;;16.80;4.95;;;2.20;99.90;;;;;;4970565;28;20416;-73
2021/03/05 03:19:45;;;;;;;14.20;4.75;;;2.40;99.90;;;;;;4986948;28;20073;-73
2021/03/05 03:22:11;;;;;;;18.85;4.30;;;2.30;99.90;;;;;;4988510;28;20081;-74
2021/03/05 03:24:36;;;;;;;10.95;3.88;;;2.20;99.90;;;;;;4988872;28;20035;-74
2021/03/05 03:27:02;;;;;;;10.75;4.78;;;2.00;99.90;;;;;;4988421;28;20077;-73
2021/03/05 03:29:27;;;;;;;20.15;4.18;;;1.80;99.90;;;;;;4988183;28;20081;-73
2021/03/05 03:31:54;;;;;;;13.40;4.60;;;1.90;99.90;;;;;;4987229;28;20030;-73
2021/03/05 03:34:21;;;;;;;10.82;4.35;;;1.90;99.90;;;;;;4989029;28;20030;-73
2021/03/05 03:36:48;;;;;;;17.17;4.57;;;1.80;99.90;;;;;;4988870;28;20362;-74
2021/03/05 03:39:14;;;;;;;11.07;4.18;;;1.80;99.90;;;;;;4988179;28;20060;-73
2021/03/05 03:41:40;;;;;;;12.63;4.22;;;1.90;99.90;;;;;;4987756;28;20034;-74
2021/03/05 03:44:08;;;;;;;8.80;3.67;;;1.90;99.90;;;;;;4988134;28;20041;-74
2021/03/05 03:46:37;;;;;;;11.10;4.28;;;1.80;99.90;;;;;;4988654;28;20111;-74
2021/03/05 03:49:09;;;;;;;12.27;3.67;;;1.80;99.90;;;;;;4988352;28;20595;-74
2021/03/05 03:51:46;;;;;;;7.25;3.75;;;1.80;99.90;;;;;;4990780;28;20033;-74
2021/03/05 03:54:17;;;;;;;6.90;3.42;;;1.70;99.90;;;;;;4991943;28;20598;-73
2021/03/05 03:56:46;;;;;;;14.27;4.57;;;1.60;99.90;;;;;;4993794;28;20457;-74
2021/03/05 03:59:15;;;;;;;15.68;4.28;;;1.70;99.90;;;;;;4987544;28;20042;-74
2021/03/05 04:01:45;;;;;;;16.95;4.47;;;1.70;99.90;;;;;;4989926;28;20035;-74
2021/03/05 04:04:12;;;;;;;9.25;3.53;;;1.60;99.90;;;;;;4992113;28;20037;-74
2021/03/05 04:06:38;;;;;;;8.30;3.55;;;1.50;99.90;;;;;;4992039;28;20030;-74
2021/03/05 04:09:04;;;;;;;9.48;3.55;;;1.60;99.90;;;;;;4991830;28;20248;-74
2021/03/05 04:11:31;;;;;;;9.48;3.50;;;1.50;99.90;;;;;;4991035;28;20069;-74
2021/03/05 04:13:57;;;;;;;7.70;3.78;;;1.60;99.90;;;;;;4991062;28;20514;-74
2021/03/05 04:16:22;;;;;;;11.30;3.42;;;1.50;99.90;;;;;;4991820;28;20038;-73
2021/03/05 04:18:48;;;;;;;9.57;3.72;;;1.50;99.90;;;;;;4990779;28;20095;-73
2021/03/05 04:21:18;;;;;;;11.07;3.35;;;1.40;99.90;;;;;;4991778;28;20026;-74
2021/03/05 04:23:43;;;;;;;7.13;3.38;;;1.30;99.90;;;;;;4990970;28;20034;-74
2021/03/05 04:26:09;;;;;;;9.65;4.28;;;1.40;99.90;;;;;;4990226;28;20093;-74
2021/03/05 04:28:34;;;;;;;8.63;3.97;;;1.40;99.90;;;;;;4994183;28;20034;-74
2021/03/05 04:31:00;;;;;;;9.60;3.50;;;1.30;99.90;;;;;;4990800;28;20032;-74
2021/03/05 04:33:25;;;;;;;5.93;3.15;;;1.30;99.90;;;;;;4991644;28;20100;-74
2021/03/05 04:35:51;;;;;;;11.48;3.22;;;1.30;99.90;;;;;;4991460;28;20432;-74
2021/03/05 04:38:17;;;;;;;6.85;3.05;;;1.30;99.90;;;;;;4990332;28;20034;-74
2021/03/05 04:40:43;;;;;;;8.25;3.22;;;1.20;99.90;;;;;;4990286;28;20031;-75
2021/03/05 04:43:08;;;;;;;5.70;2.53;;;1.40;99.90;;;;;;4991043;28;20038;-74
2021/03/05 04:45:33;;;;;;;5.55;2.90;;;1.50;99.90;;;;;;4991416;28;20030;-74
2021/03/05 04:47:59;;;;;;;3.38;2.10;;;1.40;99.90;;;;;;4990537;28;20034;-74
2021/03/05 04:50:27;;;;;;;5.72;2.65;;;1.50;99.90;;;;;;4992486;28;20034;-74
2021/03/05 04:52:53;;;;;;;22.27;8.40;;;1.50;99.90;;;;;;4990333;28;20038;-74
2021/03/05 04:55:18;;;;;;;6.13;3.65;;;1.60;99.90;;;;;;4990877;28;20027;-74
2021/03/05 04:57:44;;;;;;;4.63;2.40;;;1.60;99.90;;;;;;4991223;28;20026;-75
2021/03/05 05:00:10;;;;;;;8.60;3.00;;;1.60;99.90;;;;;;4991655;28;20041;-74
2021/03/05 05:02:35;;;;;;;8.30;2.60;;;1.70;99.90;;;;;;4989595;28;20034;-74
2021/03/05 05:05:01;;;;;;;5.30;2.58;;;1.50;99.90;;;;;;4990995;28;20045;-74
2021/03/05 05:07:26;;;;;;;9.02;2.75;;;1.60;99.90;;;;;;4990246;28;20456;-74
2021/03/05 05:09:52;;;;;;;5.32;2.40;;;1.60;99.90;;;;;;4990462;28;20138;-73
2021/03/05 05:12:18;;;;;;;5.60;2.95;;;1.60;99.90;;;;;;4989866;28;20354;-74
2021/03/05 05:14:44;;;;;;;3.25;2.15;;;1.70;99.90;;;;;;4990693;28;20049;-74
2021/03/05 05:17:09;;;;;;;3.75;2.35;;;1.80;99.90;;;;;;4989766;28;20034;-74
2021/03/05 05:19:35;;;;;;;5.85;2.65;;;1.90;99.90;;;;;;4990484;28;20133;-74
2021/03/05 05:22:00;;;;;;;5.65;2.97;;;1.80;99.90;;;;;;4989547;28;20031;-74
2021/03/05 05:24:26;;;;;;;6.70;2.97;;;1.80;99.90;;;;;;4989366;28;20034;-74
2021/03/05 05:26:51;;;;;;;4.32;2.15;;;1.90;99.90;;;;;;4989610;28;20034;-74
2021/03/05 05:29:17;;;;;;;4.30;2.55;;;1.90;99.90;;;;;;4987864;28;20034;-74
2021/03/05 05:31:42;;;;;;;5.40;2.38;;;1.80;99.90;;;;;;4988953;28;20492;-74
2021/03/05 05:34:08;;;;;;;6.45;3.78;;;1.80;99.90;;;;;;4990841;28;20436;-73
2021/03/05 05:36:33;;;;;;;9.88;4.68;;;1.80;99.90;;;;;;4990517;28;20078;-74
2021/03/05 05:38:58;;;;;;;9.77;5.32;;;1.70;99.90;;;;;;4989432;28;20027;-74
2021/03/05 05:41:24;;;;;;;12.02;5.93;;;1.60;99.90;;;;;;4989076;28;20531;-74
2021/03/05 05:43:50;;;;;;;10.43;3.45;;;1.60;99.90;;;;;;4990161;28;20109;-74
2021/03/05 05:46:19;;;;;;;9.82;3.60;;;1.60;99.90;;;;;;4989479;28;20037;-74
2021/03/05 05:48:47;;;;;;;14.57;7.18;;;1.60;99.90;;;;;;4988628;28;20034;-74
2021/03/05 05:51:24;;;;;;;12.20;5.88;;;1.60;99.90;;;;;;4988322;28;20027;-74
2021/03/05 05:53:51;;;;;;;11.07;5.10;;;1.50;99.90;;;;;;4988569;28;20046;-74
2021/03/05 05:56:19;;;;;;;12.85;6.28;;;1.40;99.90;;;;;;4988177;28;20110;-74
2021/03/05 05:58:46;;;;;;;12.88;6.22;;;1.60;99.90;;;;;;4990634;28;20554;-75
2021/03/05 06:01:12;;;;;;;19.85;8.60;;;1.70;99.90;;;;;;4989293;28;20276;-74
2021/03/05 06:03:39;;;;;;;55.75;19.30;;;1.50;99.90;;;;;;4988706;28;20112;-71
2021/03/05 06:06:05;;;;;;;61.75;30.10;;;1.50;99.90;;;;;;4989456;28;20026;-71
2021/03/05 06:08:37;;;;;;;11.82;6.75;;;1.50;99.90;;;;;;4997692;28;20030;-71
2021/03/05 06:11:02;;;;;;;6.30;3.67;;;1.40;99.90;;;;;;4977328;28;20030;-72
2021/03/05 06:13:31;;;;;;;13.43;7.13;;;1.40;99.90;;;;;;4988189;28;20026;-71
2021/03/05 06:16:15;;;;;;;7.60;4.00;;;1.30;99.90;;;;;;4991071;28;20157;-73
2021/03/05 06:18:45;;;;;;;33.53;14.85;;;1.30;99.90;;;;;;4988444;28;20027;-71
2021/03/05 06:21:11;;;;;;;14.25;7.25;;;1.30;99.90;;;;;;4988898;28;20121;-72
2021/03/05 06:23:59;;;;;;;20.55;9.25;;;1.30;99.90;;;;;;4988916;28;20034;-71
2021/03/05 06:26:50;;;;;;;17.20;8.20;;;1.30;99.90;;;;;;4986515;28;20026;-72
2021/03/05 06:29:18;;;;;;;22.58;9.85;;;1.40;99.90;;;;;;4987314;28;20074;-70
2021/03/05 06:32:02;;;;;;;22.33;9.75;;;1.50;99.90;;;;;;4985912;28;20141;-71
2021/03/05 06:34:28;;;;;;;15.25;8.30;;;1.60;99.90;;;;;;4979373;28;20105;-71
2021/03/05 06:36:59;;;;;;;19.65;7.97;;;1.70;99.90;;;;;;4985305;28;20050;-70
2021/03/05 06:39:29;;;;;;;14.82;7.53;;;1.70;99.90;;;;;;4983292;28;20042;-71
2021/03/05 06:42:06;;;;;;;13.85;6.70;;;1.60;99.90;;;;;;4984072;28;20088;-70
2021/03/05 06:44:37;;;;;;;13.45;6.55;;;1.60;99.90;;;;;;4985434;28;20077;-70
2021/03/05 06:47:14;;;;;;;13.45;7.07;;;1.80;99.90;;;;;;4983585;28;20089;-70
2021/03/05 06:49:41;;;;;;;8.80;5.63;;;1.80;99.90;;;;;;4984008;28;20038;-71
2021/03/05 06:52:07;;;;;;;9.88;5.15;;;1.70;99.90;;;;;;4982785;28;20034;-70
2021/03/05 06:54:37;;;;;;;15.75;5.57;;;1.80;99.90;;;;;;4984193;28;20038;-70
2021/03/05 06:57:04;;;;;;;10.27;5.10;;;1.70;99.90;;;;;;4984394;28;20037;-70
2021/03/05 06:59:43;;;;;;;11.35;5.10;;;1.80;99.90;;;;;;4978051;28;20026;-71
2021/03/05 07:02:14;;;;;;;9.05;4.82;;;1.80;99.90;;;;;;4982391;28;20030;-71
2021/03/05 07:04:50;;;;;;;7.68;4.00;;;1.80;99.90;;;;;;4972089;28;20041;-71
2021/03/05 07:07:20;;;;;;;7.00;4.10;;;1.80;99.90;;;;;;4981683;28;20038;-71
2021/03/05 07:09:47;;;;;;;8.85;3.75;;;1.80;99.90;;;;;;4975903;28;20034;-70
2021/03/05 07:12:15;;;;;;;9.13;3.90;;;1.90;99.90;;;;;;4979832;28;20041;-71
2021/03/05 07:14:44;;;;;;;8.57;4.20;;;1.90;99.90;;;;;;4973951;28;20019;-70
2021/03/05 07:17:10;;;;;;;8.70;4.00;;;2.00;99.90;;;;;;4983623;28;20058;-72
2021/03/05 07:19:37;;;;;;;10.10;4.78;;;2.10;99.90;;;;;;4961814;28;20472;-71
2021/03/05 07:22:05;;;;;;;10.02;3.88;;;2.10;99.90;;;;;;4976326;28;20401;-72
2021/03/05 07:24:32;;;;;;;8.85;4.53;;;2.10;99.90;;;;;;4971891;28;20081;-71
2021/03/05 07:27:01;;;;;;;5.90;3.38;;;2.20;99.90;;;;;;4987247;28;20034;-70
2021/03/05 07:29:34;;;;;;;10.95;4.05;;;2.20;99.90;;;;;;4985544;28;20031;-71
2021/03/05 07:32:01;;;;;;;9.60;3.65;;;2.20;99.90;;;;;;4985636;28;20031;-70
2021/03/05 07:34:29;;;;;;;8.27;5.10;;;2.40;99.90;;;;;;4979530;28;20068;-71
2021/03/05 07:36:58;;;;;;;12.32;5.65;;;2.40;99.90;;;;;;4982160;28;20033;-72
2021/03/05 07:39:26;;;;;;;17.77;7.28;;;2.40;99.90;;;;;;4979156;28;20048;-72
2021/03/05 07:41:54;;;;;;;7.20;3.55;;;2.50;99.90;;;;;;4988871;28;20560;-72
2021/03/05 07:44:20;;;;;;;7.50;3.75;;;2.60;99.90;;;;;;4987711;28;20433;-72
2021/03/05 07:46:46;;;;;;;5.63;3.55;;;2.60;99.90;;;;;;4980997;28;20458;-72
2021/03/05 07:49:12;;;;;;;14.98;5.78;;;2.50;99.90;;;;;;4978982;28;20129;-71
2021/03/05 07:51:40;;;;;;;13.38;5.13;;;2.60;99.90;;;;;;4981026;28;20105;-72
2021/03/05 07:54:05;;;;;;;15.70;5.20;;;2.60;99.90;;;;;;4980866;28;20050;-72
2021/03/05 07:56:50;;;;;;;7.38;3.30;;;2.70;99.90;;;;;;4978766;28;20045;-72
2021/03/05 07:59:41;;;;;;;5.82;3.33;;;2.90;99.90;;;;;;4987085;28;20105;-71
2021/03/05 08:02:07;;;;;;;5.50;3.40;;;3.00;99.90;;;;;;4985454;28;20034;-72
2021/03/05 08:04:48;;;;;;;4.90;2.85;;;3.00;99.90;;;;;;4986267;28;20039;-73
2021/03/05 08:07:14;;;;;;;14.55;5.15;;;3.00;99.90;;;;;;4983980;28;20060;-71
2021/03/05 08:09:41;;;;;;;4.63;2.67;;;3.10;99.90;;;;;;4984993;28;20045;-69
2021/03/05 08:12:26;;;;;;;7.68;2.88;;;3.20;99.90;;;;;;4966672;28;20072;-71
2021/03/05 08:14:52;;;;;;;12.00;3.83;;;3.40;99.90;;;;;;4985714;28;20098;-69
2021/03/05 08:17:31;;;;;;;10.65;3.70;;;3.40;99.90;;;;;;4987675;28;20026;-69
2021/03/05 08:19:57;;;;;;;6.82;3.50;;;3.50;99.90;;;;;;4987508;28;20114;-71
2021/03/05 08:22:23;;;;;;;6.18;3.15;;;3.50;99.90;;;;;;4985790;28;20110;-72
2021/03/05 08:24:49;;;;;;;4.40;2.75;;;3.60;99.90;;;;;;4986120;28;20033;-69
2021/03/05 08:27:20;;;;;;;11.48;4.20;;;3.80;99.90;;;;;;4984811;28;20031;-69
2021/03/05 08:30:04;;;;;;;6.90;3.45;;;3.90;99.90;;;;;;4965324;28;20080;-71
2021/03/05 08:32:33;;;;;;;9.18;4.32;;;4.00;99.90;;;;;;4983585;28;20030;-69
2021/03/05 08:35:09;;;;;;;7.07;3.45;;;4.00;99.90;;;;;;4984318;28;20038;-69
2021/03/05 08:37:37;;;;;;;7.55;3.97;;;4.10;99.90;;;;;;4980959;28;20026;-71
2021/03/05 08:40:16;;;;;;;10.15;5.20;;;4.10;99.90;;;;;;4988251;28;20080;-70
2021/03/05 08:42:46;;;;;;;12.10;5.18;;;4.10;99.90;;;;;;4978111;28;20485;-70
2021/03/05 08:45:29;;;;;;;13.38;5.18;;;4.10;99.90;;;;;;4983533;28;20585;-70
2021/03/05 08:48:00;;;;;;;16.67;6.47;;;4.20;99.90;;;;;;4981140;28;20034;-69
2021/03/05 08:50:31;;;;;;;10.35;4.78;;;4.30;99.90;;;;;;4984993;28;20053;-70
2021/03/05 08:53:05;;;;;;;9.02;4.43;;;4.30;99.90;;;;;;4982349;28;20046;-70
2021/03/05 08:55:39;;;;;;;9.45;4.47;;;4.30;99.90;;;;;;4982811;28;20019;-69
2021/03/05 08:58:05;;;;;;;11.40;5.18;;;4.40;99.90;;;;;;4955572;28;20162;-70
2021/03/05 09:00:32;;;;;;;11.07;5.13;;;4.40;99.90;;;;;;4963876;28;20035;-70
2021/03/05 09:03:16;;;;;;;11.45;5.70;;;4.30;99.90;;;;;;4975844;28;20673;-70
2021/03/05 09:05:43;;;;;;;14.73;6.20;;;4.40;99.90;;;;;;4983767;28;20521;-71
2021/03/05 09:08:11;;;;;;;12.05;6.07;;;4.50;99.90;;;;;;4982892;28;20049;-69
2021/03/05 09:10:44;;;;;;;13.50;5.80;;;4.60;99.90;;;;;;4986195;28;20026;-72
2021/03/05 09:13:14;;;;;;;11.23;5.70;;;4.70;99.90;;;;;;4981787;28;20050;-72
2021/03/05 09:15:41;;;;;;;20.03;7.17;;;4.80;99.90;;;;;;4979096;28;20031;-70
2021/03/05 09:18:09;;;;;;;9.40;4.80;;;4.80;99.90;;;;;;4985276;28;20489;-71
2021/03/05 09:20:43;;;;;;;8.50;4.65;;;4.80;99.90;;;;;;4978655;28;20485;-74
2021/03/05 09:23:17;;;;;;;13.10;5.05;;;4.90;99.90;;;;;;4981545;28;20051;-74
2021/03/05 09:25:51;;;;;;;10.48;4.40;;;4.90;99.90;;;;;;4986219;28;20035;-74
2021/03/05 09:28:18;;;;;;;7.47;3.88;;;4.80;99.90;;;;;;4985801;28;20061;-73
2021/03/05 09:30:48;;;;;;;8.05;3.70;;;4.90;99.90;;;;;;4986275;28;20106;-74
2021/03/05 09:33:14;;;;;;;13.02;5.20;;;5.00;99.90;;;;;;4986632;28;20449;-72
2021/03/05 09:35:39;;;;;;;5.55;3.53;;;5.00;99.90;;;;;;4985903;28;20112;-73
2021/03/05 09:38:07;;;;;;;5.68;3.05;;;4.90;99.90;;;;;;4986224;28;20030;-73
2021/03/05 09:40:35;;;;;;;9.10;3.97;;;4.90;99.90;;;;;;4985372;28;20037;-73
2021/03/05 09:43:03;;;;;;;5.00;3.17;;;4.90;99.90;;;;;;4968980;28;20030;-73
2021/03/05 09:45:34;;;;;;;9.05;4.32;;;4.90;99.90;;;;;;4974893;28;20121;-74
2021/03/05 09:48:00;;;;;;;5.65;2.55;;;5.00;99.90;;;;;;4983885;28;20035;-74
2021/03/05 09:50:26;;;;;;;6.93;2.72;;;5.00;99.90;;;;;;4983907;28;20025;-73
2021/03/05 09:52:53;;;;;;;6.70;3.45;;;5.00;99.90;;;;;;4985139;28;20047;-73
2021/03/05 09:55:29;;;;;;;9.13;3.97;;;5.10;99.90;;;;;;4976832;28;20027;-74
2021/03/05 09:58:08;;;;;;;6.30;3.30;;;5.20;99.90;;;;;;4987010;28;20039;-73
2021/03/05 10:00:35;;;;;;;8.15;2.92;;;5.50;99.90;;;;;;4983419;28;20018;-73
2021/03/05 10:03:05;;;;;;;7.05;3.10;;;5.50;99.90;;;;;;4975423;28;20398;-72
2021/03/05 10:05:32;;;;;;;6.10;2.67;;;5.80;99.90;;;;;;4963328;28;20374;-73
2021/03/05 10:07:58;;;;;;;4.40;2.33;;;5.90;99.20;;;;;;4979728;28;20050;-73
2021/03/05 10:10:23;;;;;;;4.88;2.53;;;6.10;98.20;;;;;;4984198;28;20064;-73
2021/03/05 10:12:55;;;;;;;4.63;2.30;;;6.20;96.00;;;;;;4981068;28;20113;-73
2021/03/05 10:15:23;;;;;;;5.88;1.95;;;6.20;95.40;;;;;;4979549;28;20027;-75
2021/03/05 10:17:51;;;;;;;4.07;1.73;;;6.40;92.80;;;;;;4980537;28;20105;-72
2021/03/05 10:20:17;;;;;;;3.65;2.00;;;6.50;92.10;;;;;;4977050;28;20030;-72
2021/03/05 10:22:50;;;;;;;2.72;1.60;;;6.50;91.80;;;;;;4984266;28;20149;-73
2021/03/05 10:25:15;;;;;;;4.45;1.80;;;6.50;84.00;;;;;;4984910;28;20022;-73
2021/03/05 10:27:42;;;;;;;4.82;1.58;;;6.60;90.40;;;;;;4986225;28;20508;-72
2021/03/05 10:30:08;;;;;;;3.47;1.98;;;6.80;87.40;;;;;;4976163;28;20497;-73
2021/03/05 10:32:42;;;;;;;3.72;1.58;;;7.00;86.20;;;;;;4982286;28;20027;-72
2021/03/05 10:35:12;;;;;;;3.35;1.45;;;7.30;84.70;;;;;;4989501;28;20433;-72
2021/03/05 10:37:42;;;;;;;1.50;1.20;;;7.50;81.80;;;;;;4983378;28;20030;-73
2021/03/05 10:40:09;;;;;;;2.67;1.60;;;7.50;77.50;;;;;;4985439;28;20038;-72
2021/03/05 10:42:35;;;;;;;3.75;1.85;;;7.80;78.10;;;;;;4983863;28;20022;-72
2021/03/05 10:45:01;;;;;;;7.20;2.92;;;7.80;80.00;;;;;;4979487;28;20026;-73
2021/03/05 10:47:27;;;;;;;7.13;2.58;;;7.90;71.50;;;;;;4983626;28;20747;-72
2021/03/05 10:49:52;;;;;;;3.20;1.60;;;7.70;69.30;;;;;;4975725;28;20042;-72
2021/03/05 10:52:23;;;;;;;9.63;3.15;;;7.70;70.20;;;;;;4984360;28;20038;-73
2021/03/05 10:54:49;;;;;;;2.77;1.73;;;7.70;69.40;;;;;;4979593;28;20033;-74
2021/03/05 10:57:22;;;;;;;2.70;1.42;;;7.90;66.80;;;;;;4984551;28;20033;-73
2021/03/05 10:59:48;;;;;;;3.03;2.17;;;8.20;70.50;;;;;;4981632;28;20038;-73
2021/03/05 11:02:15;;;;;;;4.95;2.03;;;8.40;68.30;;;;;;4984046;28;20374;-73
2021/03/05 11:04:40;;;;;;;8.07;2.97;;;8.50;66.80;;;;;;4985108;28;20030;-73
2021/03/05 11:07:06;;;;;;;6.18;2.65;;;8.60;65.20;;;;;;4984234;28;20445;-73
2021/03/05 11:09:32;;;;;;;6.68;2.70;;;8.80;65.50;;;;;;4983703;28;20401;-73
2021/03/05 11:12:04;;;;;;;6.35;2.70;;;9.10;63.00;;;;;;4983352;28;20399;-73
2021/03/05 11:14:31;;;;;;;5.38;2.38;;;9.00;62.70;;;;;;4985313;28;20054;-74
2021/03/05 11:16:56;;;;;;;4.05;1.75;;;8.90;65.10;;;;;;4980963;28;20381;-72
2021/03/05 11:19:26;;;;;;;6.28;1.65;;;9.10;66.70;;;;;;4982266;28;20027;-73
2021/03/05 11:21:52;;;;;;;2.47;1.35;;;8.70;61.00;;;;;;4982241;28;20076;-73
2021/03/05 11:24:17;;;;;;;1.60;1.02;;;8.60;61.90;;;;;;4981363;28;20089;-73
2021/03/05 11:26:43;;;;;;;4.60;1.40;;;9.00;62.00;;;;;;4983624;28;20646;-73
2021/03/05 11:29:09;;;;;;;2.38;0.98;;;9.50;61.70;;;;;;4980355;28;20077;-73
2021/03/05 11:31:34;;;;;;;2.50;1.10;;;10.10;58.50;;;;;;4980985;28;20362;-72
2021/03/05 11:34:00;;;;;;;2.33;1.00;;;10.40;58.50;;;;;;4982617;28;21220;-73
2021/03/05 11:36:26;;;;;;;2.63;0.90;;;10.90;56.60;;;;;;4980802;28;20030;-73
2021/03/05 11:38:54;;;;;;;1.48;1.05;;;10.90;53.30;;;;;;4977748;28;20084;-72
2021/03/05 11:41:21;;;;;;;2.13;0.73;;;10.80;54.70;;;;;;4985153;28;20022;-72
2021/03/05 11:43:51;;;;;;;1.08;0.70;;;10.80;53.00;;;;;;4978553;28;20343;-70
2021/03/05 11:46:20;;;;;;;2.45;1.10;;;11.10;51.60;;;;;;4981412;28;20117;-70
2021/03/05 11:48:46;;;;;;;0.70;0.70;;;11.40;50.90;;;;;;4982983;28;20035;-70
2021/03/05 11:51:13;;;;;;;1.40;0.80;;;11.70;49.40;;;;;;4982526;28;20106;-71
2021/03/05 11:53:38;;;;;;;1.55;1.08;;;12.20;49.20;;;;;;4983956;28;20049;-70
2021/03/05 11:56:05;;;;;;;2.58;0.50;;;12.60;45.40;;;;;;4985699;28;20023;-71
2021/03/05 11:58:31;;;;;;;1.60;0.70;;;13.00;46.30;;;;;;4984060;28;20037;-70
2021/03/05 12:00:57;;;;;;;1.88;0.60;;;12.80;43.60;;;;;;4982985;28;20391;-71
2021/03/05 12:03:22;;;;;;;0.70;0.70;;;13.10;43.20;;;;;;4984711;28;20125;-70
2021/03/05 12:05:48;;;;;;;1.63;0.52;;;13.30;42.40;;;;;;4987010;28;20061;-72
2021/03/05 12:08:13;;;;;;;0.80;0.50;;;13.60;45.80;;;;;;4988933;28;20041;-71
2021/03/05 12:10:39;;;;;;;4.15;0.80;;;13.80;43.00;;;;;;4988178;28;20031;-71
2021/03/05 12:13:05;;;;;;;1.58;0.60;;;14.10;43.80;;;;;;4989958;28;20517;-71
2021/03/05 12:15:31;;;;;;;1.50;0.70;;;14.00;44.40;;;;;;4996960;28;20100;-70
2021/03/05 12:17:56;;;;;;;1.52;0.90;;;14.30;42.20;;;;;;4992107;28;20026;-70
2021/03/05 12:20:22;;;;;;;1.70;0.80;;;14.70;41.50;;;;;;4991650;28;20036;-73
2021/03/05 12:22:47;;;;;;;2.58;0.73;;;14.90;40.50;;;;;;4991797;28;20026;-72
2021/03/05 12:25:14;;;;;;;2.17;0.95;;;14.60;41.20;;;;;;4994105;28;20107;-73
2021/03/05 12:27:39;;;;;;;1.30;0.70;;;14.80;41.50;;;;;;4993572;28;20108;-72
2021/03/05 12:30:06;;;;;;;0.90;0.70;;;15.30;39.70;;;;;;4990433;28;20154;-75
2021/03/05 12:32:31;;;;;;;0.95;0.60;;;14.40;40.70;;;;;;4989098;28;20572;-72
2021/03/05 12:34:57;;;;;;;0.75;0.60;;;14.40;42.80;;;;;;4996695;28;20117;-73
2021/03/05 12:37:22;;;;;;;0.95;0.60;;;14.10;41.30;;;;;;4993699;28;20054;-72
2021/03/05 12:39:48;;;;;;;0.80;0.52;;;14.70;40.80;;;;;;4994595;28;20026;-72
2021/03/05 12:42:14;;;;;;;2.67;0.95;;;15.20;40.40;;;;;;4991778;28;20052;-72
2021/03/05 12:44:40;;;;;;;1.42;0.68;;;15.40;40.20;;;;;;4989521;28;20030;-72
2021/03/05 12:47:05;;;;;;;0.80;0.60;;;15.30;39.10;;;;;;4991421;28;20030;-71
2021/03/05 12:49:31;;;;;;;0.90;0.55;;;15.30;37.60;;;;;;4992810;28;20080;-72
2021/03/05 12:51:56;;;;;;;1.05;0.60;;;15.50;36.40;;;;;;4994001;28;20025;-73
2021/03/05 12:54:22;;;;;;;0.40;0.32;;;15.40;35.00;;;;;;4997128;28;20109;-71
2021/03/05 12:56:47;;;;;;;2.72;0.85;;;15.40;36.30;;;;;;4985837;28;20037;-71